Time;durP1;ratioP1;P1;durP2;ratioP2;P2;SDS_P1;SDS_P2;PMS_P1;PMS_P2;Temp;Humidity;BMP_temperature;BMP_pressure;BME280_temperature;BME280_humidity;BME280_pressure;Samples;Min_cycle;Max_cycle;Signal;HPM_P1;HPM_P2
2023/10/12 00:01:57;;;;;;;;;;;;;;;20.25;62.11;101032.81;5037448;28;19916;-47
2023/10/12 00:04:23;;;;;;;;;;;;;;;20.24;62.22;101029.28;5037827;28;19913;-49
2023/10/12 00:06:51;;;;;;;;;;;;;;;20.24;62.02;101034.69;5037788;28;19909;-48
2023/10/12 00:09:20;;;;;;;;;;;;;;;20.24;62.16;101037.38;5042351;28;19989;-49
2023/10/12 00:11:56;;;;;;;;;;;;;;;20.23;62.25;101038.41;5042564;28;19917;-49
2023/10/12 00:14:27;;;;;;;;;;;;;;;20.23;62.22;101033.84;5041774;28;19913;-51
2023/10/12 00:16:53;;;;;;;;;;;;;;;20.23;61.95;101028.44;5044883;28;19913;-49
2023/10/12 00:19:18;;;;;;;;;;;;;;;20.23;61.79;101035.72;5040435;28;19967;-50
2023/10/12 00:21:43;;;;;;;;;;;;;;;20.22;62.13;101045.66;5037814;28;20285;-48
2023/10/12 00:24:13;;;;;;;;;;;;;;;20.22;61.94;101050.22;5043011;28;19913;-49
2023/10/12 00:26:41;;;;;;;;;;;;;;;20.22;61.89;101048.38;5040521;28;19996;-49
2023/10/12 00:29:07;;;;;;;;;;;;;;;20.22;62.19;101056.47;5041421;28;19931;-50
2023/10/12 00:31:32;;;;;;;;;;;;;;;20.22;62.08;101059.16;5040862;28;19928;-51
2023/10/12 00:33:57;;;;;;;;;;;;;;;20.22;61.96;101053.75;5039185;28;20425;-47
2023/10/12 00:36:24;;;;;;;;;;;;;;;20.22;62.17;101052.94;5041639;28;19913;-46
2023/10/12 00:38:51;;;;;;;;;;;;;;;20.21;62.11;101049.34;5043199;28;19913;-49
2023/10/12 00:41:17;;;;;;;;;;;;;;;20.20;61.97;101055.78;5039681;28;19923;-49
2023/10/12 00:43:49;;;;;;;;;;;;;;;20.21;61.80;101062.84;5040348;28;19940;-49
2023/10/12 00:51:35;;;;;;;;;;;;;;;20.20;61.86;101074.69;5039759;28;19989;-50
2023/10/12 00:54:03;;;;;;;;;;;;;;;20.19;61.85;101081.09;5033270;28;19913;-52
2023/10/12 00:56:30;;;;;;;;;;;;;;;20.20;61.82;101076.53;5040999;28;19913;-50
2023/10/12 00:58:55;;;;;;;;;;;;;;;20.19;62.17;101088.38;5038959;28;19914;-54
2023/10/12 01:01:22;;;;;;;;;;;;;;;20.20;61.90;101080.09;5037206;28;19913;-50
2023/10/12 01:03:49;;;;;;;;;;;;;;;20.19;61.86;101077.56;5040080;28;19916;-48
2023/10/12 01:06:27;;;;;;;;;;;;;;;20.19;62.09;101082.97;5038008;28;19913;-50
2023/10/12 01:08:57;;;;;;;;;;;;;;;20.18;62.05;101084.81;5043226;28;19913;-50
2023/10/12 01:11:25;;;;;;;;;;;;;;;20.19;61.83;101074.88;5040205;28;19943;-46
2023/10/12 01:19:20;;;;;;;;;;;;;;;20.17;62.02;101099.31;5033273;28;19924;-52
2023/10/12 01:21:46;;;;;;;;;;;;;;;20.17;62.22;101103.88;5039652;28;19972;-49
2023/10/12 01:24:11;;;;;;;;;;;;;;;20.17;61.86;101111.97;5037893;28;19919;-49
2023/10/12 01:26:40;;;;;;;;;;;;;;;20.17;61.81;101111.97;5034452;28;19909;-47
2023/10/12 01:29:09;;;;;;;;;;;;;;;20.17;62.01;101120.06;5034107;28;19968;-48
2023/10/12 01:31:36;;;;;;;;;;;;;;;20.16;61.89;101123.78;5039782;28;19921;-49
2023/10/12 01:34:01;;;;;;;;;;;;;;;20.15;61.92;101125.66;5072413;28;19920;-48
2023/10/12 01:36:30;;;;;;;;;;;;;;;20.16;62.15;101134.59;5034752;28;19909;-51
2023/10/12 01:39:11;;;;;;;;;;;;;;;20.15;62.07;101131.06;5039735;28;19940;-48
2023/10/12 01:41:42;;;;;;;;;;;;;;;20.15;62.07;101125.66;5043413;28;19913;-51
2023/10/12 01:44:11;;;;;;;;;;;;;;;20.15;61.96;101133.75;5034416;28;19916;-47
2023/10/12 01:46:40;;;;;;;;;;;;;;;20.14;62.11;101129.38;5039270;28;19920;-49
2023/10/12 01:49:06;;;;;;;;;;;;;;;20.14;61.98;101133.94;5042430;28;19914;-47
2023/10/12 01:51:33;;;;;;;;;;;;;;;20.14;61.84;101139.34;5033552;28;19917;-48
2023/10/12 01:53:58;;;;;;;;;;;;;;;20.14;61.78;101136.63;5041515;28;19913;-51
2023/10/12 01:56:28;;;;;;;;;;;;;;;20.13;61.96;101143.88;5041879;28;20363;-49
2023/10/12 01:58:54;;;;;;;;;;;;;;;20.13;61.66;101134.94;5036545;28;19951;-47
2023/10/12 02:01:20;;;;;;;;;;;;;;;20.13;61.86;101146.56;5043255;28;19959;-47
2023/10/12 02:03:47;;;;;;;;;;;;;;;20.12;61.75;101142.19;5037840;28;19920;-49
2023/10/12 02:06:16;;;;;;;;;;;;;;;20.12;61.94;101144.88;5039416;28;19917;-50
2023/10/12 02:11:26;;;;;;;;;;;;;;;20.11;62.01;101162.09;5038235;28;19924;-50
2023/10/12 02:13:54;;;;;;;;;;;;;;;20.11;61.66;101163.97;5040349;28;19928;-48
2023/10/12 02:16:37;;;;;;;;;;;;;;;20.10;61.89;101170.38;5042562;28;19924;-49
2023/10/12 02:19:04;;;;;;;;;;;;;;;20.10;61.81;101173.91;5037233;28;19921;-47
2023/10/12 02:21:29;;;;;;;;;;;;;;;20.10;61.60;101182.03;5038833;28;19909;-49
2023/10/12 02:28:56;;;;;;;;;;;;;;;20.09;61.74;101184.88;5046242;28;20481;-47
2023/10/12 02:31:22;;;;;;;;;;;;;;;20.07;61.65;101176.94;5036620;28;19913;-48
2023/10/12 02:33:47;;;;;;;;;;;;;;;20.08;61.76;101170.53;5040265;28;19936;-46
2023/10/12 02:36:13;;;;;;;;;;;;;;;20.07;61.76;101165.31;5040575;28;19932;-47
2023/10/12 02:38:41;;;;;;;;;;;;;;;20.06;61.77;101161.78;5035857;28;20352;-50
2023/10/12 02:41:12;;;;;;;;;;;;;;;20.07;61.76;101168.00;5041530;28;19913;-50
2023/10/12 02:43:37;;;;;;;;;;;;;;;20.05;61.81;101165.50;5046935;28;19909;-49
2023/10/12 02:46:06;;;;;;;;;;;;;;;20.05;61.67;101165.50;5037746;28;19916;-47
2023/10/12 02:48:36;;;;;;;;;;;;;;;20.05;61.75;101161.94;5041021;28;19915;-48
2023/10/12 02:51:06;;;;;;;;;;;;;;;20.04;61.73;101171.03;5036846;28;19909;-48
2023/10/12 02:53:31;;;;;;;;;;;;;;;20.03;61.77;101170.19;5040033;28;19913;-47
2023/10/12 02:56:06;;;;;;;;;;;;;;;20.04;61.65;101162.94;5037642;28;19920;-47
2023/10/12 02:58:35;;;;;;;;;;;;;;;20.03;61.43;101163.97;5037053;28;19925;-48
2023/10/12 03:01:12;;;;;;;;;;;;;;;20.01;61.68;101161.44;5036625;28;20363;-48
2023/10/12 03:03:39;;;;;;;;;;;;;;;20.01;61.61;101164.16;5034922;28;20434;-46
2023/10/12 03:06:07;;;;;;;;;;;;;;;20.01;61.64;101153.34;5033968;28;19915;-47
2023/10/12 03:08:45;;;;;;;;;;;;;;;20.01;61.61;101153.34;5036944;28;19920;-50
2023/10/12 03:11:12;;;;;;;;;;;;;;;20.00;61.38;101162.44;5039751;28;19921;-49
2023/10/12 03:13:39;;;;;;;;;;;;;;;20.00;61.69;101167.84;5041603;28;19916;-48
2023/10/12 03:18:42;;;;;;;;;;;;;;;19.99;61.69;101171.56;5037461;28;19924;-48
2023/10/12 03:21:14;;;;;;;;;;;;;;;19.98;61.62;101172.56;5036969;28;20388;-48
2023/10/12 03:23:46;;;;;;;;;;;;;;;19.98;61.66;101175.28;5032504;28;19910;-50
2023/10/12 03:26:20;;;;;;;;;;;;;;;19.97;61.58;101182.53;5035898;28;19963;-47
2023/10/12 03:28:46;;;;;;;;;;;;;;;19.96;61.64;101183.56;5037192;28;19913;-49
2023/10/12 03:31:15;;;;;;;;;;;;;;;19.96;61.59;101183.56;5030629;28;19913;-47
2023/10/12 03:33:46;;;;;;;;;;;;;;;19.96;61.32;101175.44;5030894;28;19932;-49
2023/10/12 03:36:23;;;;;;;;;;;;;;;19.95;61.64;101179.13;5032224;28;19920;-48
2023/10/12 03:39:07;;;;;;;;;;;;;;;19.96;61.64;101190.78;5028529;28;19920;-46
2023/10/12 03:44:22;;;;;;;;;;;;;;;19.94;61.25;101200.91;5044471;28;20422;-50
2023/10/12 03:46:56;;;;;;;;;;;;;;;19.95;61.45;101191.78;5040703;28;19909;-50
2023/10/12 03:49:44;;;;;;;;;;;;;;;19.86;61.21;101168.53;5039691;28;20107;-52
2023/10/12 03:52:14;;;;;;;;;;;;;;;19.93;61.42;101178.47;5041248;28;20008;-49
2023/10/12 03:54:55;;;;;;;;;;;;;;;19.93;61.36;101166.84;5033590;28;19909;-51
2023/10/12 03:57:20;;;;;;;;;;;;;;;19.92;61.53;101152.50;5043764;28;19917;-52
2023/10/12 04:02:30;;;;;;;;;;;;;;;19.92;61.30;101157.03;5039165;28;19988;-50
2023/10/12 04:05:15;;;;;;;;;;;;;;;19.92;61.57;101173.22;5042875;28;19909;-51
2023/10/12 04:08:00;;;;;;;;;;;;;;;19.90;61.57;101170.72;5039619;28;19916;-46
2023/10/12 04:13:55;;;;;;;;;;;;;;;19.90;61.54;101165.31;5069218;28;19924;-48
2023/10/12 04:18:32;;;;;;;;;;;;;;;19.90;61.41;101153.69;5043802;28;19913;-48
2023/10/12 04:20:57;;;;;;;;;;;;;;;19.88;61.20;101161.97;5039255;28;19997;-48
2023/10/12 04:28:58;;;;;;;;;;;;;;;19.88;61.44;101172.75;5063367;28;19912;-47
2023/10/12 04:31:49;;;;;;;;;;;;;;;19.88;61.63;101183.56;5061689;28;19908;-51
2023/10/12 04:34:26;;;;;;;;;;;;;;;19.88;61.35;101179.97;5062935;28;19915;-52
2023/10/12 04:37:09;;;;;;;;;;;;;;;19.87;61.57;101164.81;5062446;28;20019;-49
2023/10/12 04:39:37;;;;;;;;;;;;;;;19.87;61.74;101189.94;5063518;28;19916;-50
2023/10/12 04:42:12;;;;;;;;;;;;;;;19.87;61.55;101197.19;5062829;28;19923;-48
2023/10/12 04:44:40;;;;;;;;;;;;;;;19.87;61.74;101203.44;5061166;28;19995;-48
2023/10/12 04:47:10;;;;;;;;;;;;;;;19.87;61.72;101206.13;5063087;28;19924;-49
2023/10/12 04:57:26;;;;;;;;;;;;;;;19.87;61.97;101229.56;5062578;28;20007;-49
2023/10/12 05:00:06;;;;;;;;;;;;;;;19.87;62.25;101227.72;5062614;28;20014;-50
2023/10/12 05:02:41;;;;;;;;;;;;;;;19.87;62.25;101227.72;5061391;28;19909;-49
2023/10/12 05:07:43;;;;;;;;;;;;;;;19.88;62.21;101239.34;5036629;28;20004;-48
2023/10/12 05:10:15;;;;;;;;;;;;;;;19.87;62.14;101237.66;5041382;28;20181;-48
2023/10/12 05:12:40;;;;;;;;;;;;;;;19.87;62.27;101246.59;5037079;28;20409;-50
2023/10/12 05:15:11;;;;;;;;;;;;;;;19.87;62.52;101249.28;5033536;28;19910;-51
2023/10/12 05:17:36;;;;;;;;;;;;;;;19.87;62.40;101254.69;5041619;28;19921;-51
2023/10/12 05:20:03;;;;;;;;;;;;;;;19.88;62.19;101255.53;5036397;28;19925;-49
2023/10/12 05:22:28;;;;;;;;;;;;;;;19.87;62.39;101261.94;5033209;28;19967;-47
2023/10/12 05:24:54;;;;;;;;;;;;;;;19.88;62.31;101263.63;5041660;28;20326;-47
2023/10/12 05:27:38;;;;;;;;;;;;;;;19.86;62.47;101266.50;5038004;28;19909;-46
2023/10/12 05:30:06;;;;;;;;;;;;;;;19.86;62.57;101261.09;5035136;28;19908;-48
2023/10/12 05:32:37;;;;;;;;;;;;;;;19.87;62.27;101264.66;5039133;28;19913;-47
2023/10/12 05:35:05;;;;;;;;;;;;;;;19.86;62.53;101263.81;5035401;28;19997;-47
2023/10/12 05:37:38;;;;;;;;;;;;;;;19.86;62.51;101261.09;5042687;28;19940;-49
2023/10/12 05:40:09;;;;;;;;;;;;;;;19.85;62.56;101264.81;5034842;28;20388;-48
2023/10/12 05:42:39;;;;;;;;;;;;;;;19.87;62.29;101264.66;5035237;28;19913;-49
2023/10/12 05:45:22;;;;;;;;;;;;;;;19.86;62.32;101266.50;5043172;28;19929;-49
2023/10/12 05:47:52;;;;;;;;;;;;;;;19.86;62.53;101276.47;5036795;28;19913;-45
2023/10/12 05:50:23;;;;;;;;;;;;;;;19.86;62.54;101276.47;5033003;28;19917;-47
2023/10/12 05:52:51;;;;;;;;;;;;;;;19.86;62.53;101279.16;5035039;28;20360;-47
2023/10/12 05:55:21;;;;;;;;;;;;;;;19.86;62.73;101279.16;5044412;28;19956;-49
2023/10/12 05:57:48;;;;;;;;;;;;;;;19.86;62.53;101280.00;5037038;28;19920;-49
2023/10/12 06:00:18;;;;;;;;;;;;;;;19.88;62.77;101287.91;5034764;28;19948;-48
2023/10/12 06:02:44;;;;;;;;;;;;;;;19.87;62.44;101288.94;5041342;28;19955;-48
2023/10/12 06:05:10;;;;;;;;;;;;;;;19.87;62.70;101289.78;5035075;28;19913;-49
2023/10/12 06:07:35;;;;;;;;;;;;;;;19.86;62.61;101296.19;5039584;28;19913;-49
2023/10/12 06:10:02;;;;;;;;;;;;;;;19.88;62.36;101306.81;5042850;28;20368;-47
2023/10/12 06:12:29;;;;;;;;;;;;;;;19.88;62.35;101313.06;5033089;28;19918;-51
2023/10/12 06:14:55;;;;;;;;;;;;;;;19.88;62.71;101309.50;5039249;28;19989;-51
2023/10/12 06:17:30;;;;;;;;;;;;;;;19.88;62.69;101306.81;5039632;28;19917;-48
2023/10/12 06:19:58;;;;;;;;;;;;;;;19.87;62.39;101314.06;5037467;28;19931;-50
2023/10/12 06:22:25;;;;;;;;;;;;;;;19.88;62.66;101317.59;5040979;28;20379;-48
2023/10/12 06:24:52;;;;;;;;;;;;;;;19.87;62.56;101319.47;5041073;28;19920;-48
2023/10/12 06:29:45;;;;;;;;;;;;;;;19.87;62.54;101327.56;5043058;28;19997;-48
2023/10/12 06:32:17;;;;;;;;;;;;;;;19.87;62.54;101324.84;5036855;28;19909;-51
2023/10/12 06:34:55;;;;;;;;;;;;;;;19.88;62.64;101318.47;5039242;28;20380;-52
2023/10/12 06:37:49;;;;;;;;;;;;;;;19.87;62.57;101322.16;5042444;28;19917;-53
2023/10/12 06:45:51;;;;;;;;;;;;;;;19.87;62.26;101326.72;5040361;28;20016;-55
2023/10/12 06:51:02;;;;;;;;;;;;;;;19.88;62.40;101334.66;5042541;28;20292;-56
2023/10/12 06:53:34;;;;;;;;;;;;;;;19.89;62.50;101335.50;5038626;28;20015;-53
2023/10/12 06:58:40;;;;;;;;;;;;;;;19.88;62.38;101340.06;5043490;28;19919;-49
2023/10/12 07:03:49;;;;;;;;;;;;;;;19.88;62.03;101342.75;5038595;28;20004;-51
2023/10/12 07:06:15;;;;;;;;;;;;;;;19.88;62.19;101339.19;5035304;28;19909;-50
2023/10/12 07:08:42;;;;;;;;;;;;;;;19.89;62.31;101346.28;5041449;28;19947;-49
2023/10/12 07:11:08;;;;;;;;;;;;;;;19.88;62.23;101345.47;5035791;28;19918;-53
2023/10/12 07:13:39;;;;;;;;;;;;;;;19.89;62.28;101354.41;5037141;28;19922;-51
2023/10/12 07:16:06;;;;;;;;;;;;;;;19.89;61.90;101357.94;5037529;28;19964;-51
2023/10/12 07:18:34;;;;;;;;;;;;;;;19.89;62.42;101362.50;5037093;28;19971;-53
2023/10/12 07:20:59;;;;;;;;;;;;;;;19.90;61.90;101366.88;5038211;28;19944;-49
2023/10/12 07:23:35;;;;;;;;;;;;;;;19.88;62.23;101364.34;5042207;28;19917;-53
2023/10/12 07:26:01;;;;;;;;;;;;;;;19.89;62.18;101368.72;5044399;28;19917;-52
2023/10/12 07:28:32;;;;;;;;;;;;;;;19.89;62.16;101365.19;5041901;28;19974;-53
2023/10/12 07:33:59;;;;;;;;;;;;;;;19.90;61.85;101366.88;5051786;28;20291;-49
2023/10/12 07:39:21;;;;;;;;;;;;;;;19.91;62.10;101371.25;5049981;28;19920;-52
2023/10/12 07:42:02;;;;;;;;;;;;;;;19.91;61.84;101373.94;5044538;28;19952;-51
2023/10/12 07:44:28;;;;;;;;;;;;;;;19.92;61.74;101383.72;5038379;28;20001;-52
2023/10/12 07:46:56;;;;;;;;;;;;;;;19.91;61.85;101371.25;5033965;28;19916;-51
2023/10/12 07:49:30;;;;;;;;;;;;;;;19.92;61.81;101383.72;5041236;28;19949;-49
2023/10/12 07:57:19;;;;;;;;;;;;;;;19.90;61.76;101378.50;5039835;28;19920;-52
2023/10/12 08:02:59;;;;;;;;;;;;;;;19.91;61.74;101382.03;5037239;28;20420;-49
2023/10/12 08:05:24;;;;;;;;;;;;;;;19.91;61.64;101384.75;5039295;28;19959;-51
2023/10/12 08:08:08;;;;;;;;;;;;;;;19.91;61.53;101388.28;5038866;28;19945;-48
2023/10/12 08:13:15;;;;;;;;;;;;;;;19.92;61.41;101392.69;5051268;28;19970;-49
2023/10/12 08:21:02;;;;;;;;;;;;;;;19.91;61.74;101390.97;5025348;28;20366;-48
2023/10/12 08:23:27;;;;;;;;;;;;;;;19.91;61.56;101393.69;5040102;28;19909;-48
2023/10/12 08:25:57;;;;;;;;;;;;;;;19.92;61.49;101389.13;5039858;28;19909;-50
2023/10/12 08:28:23;;;;;;;;;;;;;;;19.92;61.47;101394.53;5039696;28;20008;-51
2023/10/12 08:30:56;;;;;;;;;;;;;;;19.91;61.66;101399.09;5039961;28;19917;-52
2023/10/12 08:33:48;;;;;;;;;;;;;;;19.90;61.29;101397.41;5047452;28;19916;-51
2023/10/12 08:38:52;;;;;;;;;;;;;;;19.88;61.45;101402.13;5040536;28;19913;-50
2023/10/12 08:41:21;;;;;;;;;;;;;;;19.88;61.20;101404.81;5042512;28;19913;-51
2023/10/12 08:43:48;;;;;;;;;;;;;;;19.89;61.13;101401.13;5036109;28;20364;-52
2023/10/12 08:46:37;;;;;;;;;;;;;;;19.88;61.41;101401.25;5042034;28;20332;-53
2023/10/12 08:49:06;;;;;;;;;;;;;;;19.88;61.25;101404.81;5037900;28;19948;-52
2023/10/12 08:51:31;;;;;;;;;;;;;;;19.88;61.22;101398.56;5041504;28;19916;-52
2023/10/12 08:54:01;;;;;;;;;;;;;;;19.88;61.52;101398.56;5071516;28;19909;-50
2023/10/12 08:56:28;;;;;;;;;;;;;;;19.88;61.32;101395.84;5067018;28;19919;-52
2023/10/12 08:58:57;;;;;;;;;;;;;;;19.88;61.36;101391.34;5042081;28;19968;-50
2023/10/12 09:01:23;;;;;;;;;;;;;;;19.87;61.22;101389.63;5038303;28;19917;-47
2023/10/12 09:03:53;;;;;;;;;;;;;;;19.87;61.57;101397.72;5042394;28;19944;-51
2023/10/12 09:06:29;;;;;;;;;;;;;;;19.87;61.33;101389.63;5041481;28;19915;-52
2023/10/12 09:08:56;;;;;;;;;;;;;;;19.86;61.35;101382.53;5047809;28;19909;-48
2023/10/12 09:11:26;;;;;;;;;;;;;;;19.87;61.22;101384.22;5041207;28;19917;-49
2023/10/12 09:13:52;;;;;;;;;;;;;;;19.87;61.51;101392.31;5041951;28;19909;-50
2023/10/12 09:16:17;;;;;;;;;;;;;;;19.86;61.19;101393.34;5038637;28;20391;-52
2023/10/12 09:18:43;;;;;;;;;;;;;;;19.87;61.50;101396.88;5042452;28;19928;-50
2023/10/12 09:21:18;;;;;;;;;;;;;;;19.86;61.42;101387.09;5039422;28;19909;-51
2023/10/12 09:23:49;;;;;;;;;;;;;;;19.86;61.42;101389.78;5039902;28;19909;-47
2023/10/12 09:26:21;;;;;;;;;;;;;;;19.86;61.17;101387.09;5040959;28;19909;-48
2023/10/12 09:31:16;;;;;;;;;;;;;;;19.86;61.46;101392.50;5037772;28;19920;-50
2023/10/12 09:33:53;;;;;;;;;;;;;;;19.86;61.15;101401.44;5038555;28;19920;-50
2023/10/12 09:36:19;;;;;;;;;;;;;;;19.85;61.17;101398.91;5034764;28;20388;-47
2023/10/12 09:38:44;;;;;;;;;;;;;;;19.85;61.17;101396.22;5038271;28;19913;-51
2023/10/12 09:41:09;;;;;;;;;;;;;;;19.85;61.14;101393.50;5036584;28;19969;-51
2023/10/12 09:43:39;;;;;;;;;;;;;;;19.84;61.21;101389.97;5036194;28;19968;-50
2023/10/12 09:46:07;;;;;;;;;;;;;;;19.85;61.29;101407.84;5041259;28;20398;-50
2023/10/12 09:48:38;;;;;;;;;;;;;;;19.84;61.32;101403.47;5037004;28;20220;-48
2023/10/12 09:51:06;;;;;;;;;;;;;;;19.84;61.06;101406.16;5035850;28;19909;-51
2023/10/12 09:53:37;;;;;;;;;;;;;;;19.85;61.12;101404.31;5036855;28;19913;-47
2023/10/12 09:56:11;;;;;;;;;;;;;;;19.85;61.27;101407.00;5064976;28;19913;-47
2023/10/12 09:58:43;;;;;;;;;;;;;;;19.84;61.16;101403.47;5040352;28;20354;-48
2023/10/12 10:01:15;;;;;;;;;;;;;;;19.84;61.26;101406.16;5044993;28;19918;-51
2023/10/12 10:03:50;;;;;;;;;;;;;;;19.84;61.18;101397.22;5037111;28;19913;-50
2023/10/12 10:06:20;;;;;;;;;;;;;;;19.84;61.26;101395.38;5034352;28;20383;-50
2023/10/12 10:09:02;;;;;;;;;;;;;;;19.85;61.20;101396.22;5034387;28;19913;-48
2023/10/12 10:11:27;;;;;;;;;;;;;;;19.86;61.23;101395.19;5031720;28;20166;-47
2023/10/12 10:13:53;;;;;;;;;;;;;;;19.86;61.57;101390.63;5035102;28;19975;-49
2023/10/12 10:16:18;;;;;;;;;;;;;;;19.86;61.42;101396.03;5031110;28;19917;-48
2023/10/12 10:18:56;;;;;;;;;;;;;;;19.87;61.65;101396.88;5042353;28;19913;-48
2023/10/12 10:21:27;;;;;;;;;;;;;;;19.87;61.60;101389.63;5033171;28;19917;-51
2023/10/12 10:23:54;;;;;;;;;;;;;;;19.88;61.83;101390.47;5032911;28;19945;-49
2023/10/12 10:26:40;;;;;;;;;;;;;;;19.88;61.83;101385.94;5031162;28;20082;-51
2023/10/12 10:29:05;;;;;;;;;;;;;;;19.89;61.59;101386.78;5036559;28;19913;-50
2023/10/12 10:31:41;;;;;;;;;;;;;;;19.89;61.83;101386.78;5036133;28;19951;-47
2023/10/12 10:34:06;;;;;;;;;;;;;;;19.89;61.73;101384.09;5031589;28;20036;-49
2023/10/12 10:36:34;;;;;;;;;;;;;;;19.88;61.57;101375.16;5037780;28;19925;-50
2023/10/12 10:39:08;;;;;;;;;;;;;;;19.88;61.74;101377.84;5038010;28;20399;-47
2023/10/12 10:44:26;;;;;;;;;;;;;;;19.89;61.56;101375.97;5060394;28;19964;-50
2023/10/12 10:47:00;;;;;;;;;;;;;;;19.88;61.54;101377.84;5033898;28;19912;-49
2023/10/12 10:49:30;;;;;;;;;;;;;;;19.88;61.64;101376.97;5036178;28;19913;-50
2023/10/12 10:52:20;;;;;;;;;;;;;;;19.88;61.73;101374.28;5038260;28;19919;-47
2023/10/12 10:54:51;;;;;;;;;;;;;;;19.89;61.78;101370.59;5033624;28;19974;-48
2023/10/12 10:57:17;;;;;;;;;;;;;;;19.88;61.51;101377.84;5038017;28;19912;-48
2023/10/12 10:59:45;;;;;;;;;;;;;;;19.89;61.82;101374.13;5037184;28;19921;-49
2023/10/12 11:02:11;;;;;;;;;;;;;;;19.88;61.66;101385.94;5036533;28;19948;-49
2023/10/12 11:04:42;;;;;;;;;;;;;;;19.90;61.48;101377.66;5037214;28;19932;-50
2023/10/12 11:07:14;;;;;;;;;;;;;;;19.89;61.65;101374.13;5037129;28;19913;-48
2023/10/12 11:12:16;;;;;;;;;;;;;;;19.89;61.60;101375.97;5033242;28;19995;-52
2023/10/12 11:14:52;;;;;;;;;;;;;;;19.90;61.54;101377.66;5036894;28;20379;-52
2023/10/12 11:17:17;;;;;;;;;;;;;;;19.89;61.46;101373.28;5040014;28;19955;-49
2023/10/12 11:19:42;;;;;;;;;;;;;;;19.88;61.67;101374.28;5033067;28;19913;-51
2023/10/12 11:22:12;;;;;;;;;;;;;;;19.88;61.63;101369.75;5033794;28;20422;-47
2023/10/12 11:24:43;;;;;;;;;;;;;;;19.88;61.44;101363.47;5037009;28;19913;-48
2023/10/12 11:27:11;;;;;;;;;;;;;;;19.87;61.48;101356.41;5037738;28;19913;-49
2023/10/12 11:29:50;;;;;;;;;;;;;;;19.87;61.46;101357.25;5040659;28;20210;-47
2023/10/12 11:32:16;;;;;;;;;;;;;;;19.88;61.66;101352.69;5036929;28;19913;-50
2023/10/12 11:34:44;;;;;;;;;;;;;;;19.88;61.39;101352.69;5036711;28;19913;-51
2023/10/12 11:37:09;;;;;;;;;;;;;;;19.88;61.43;101356.25;5037798;28;19913;-48
2023/10/12 11:39:41;;;;;;;;;;;;;;;19.88;61.55;101347.28;5033557;28;19920;-50
2023/10/12 11:42:07;;;;;;;;;;;;;;;19.87;61.67;101335.66;5035364;28;19935;-49
2023/10/12 11:44:42;;;;;;;;;;;;;;;19.87;61.61;101341.03;5035375;28;19988;-50
2023/10/12 11:47:07;;;;;;;;;;;;;;;19.87;61.54;101332.94;5032240;28;20422;-51
2023/10/12 11:49:58;;;;;;;;;;;;;;;19.87;61.45;101335.66;5037632;28;19913;-46
2023/10/12 11:52:30;;;;;;;;;;;;;;;19.88;61.57;101318.47;5065046;28;19960;-50
2023/10/12 11:55:18;;;;;;;;;;;;;;;19.87;61.42;101327.56;5035289;28;19955;-50
2023/10/12 11:57:44;;;;;;;;;;;;;;;19.87;61.58;101318.63;5036184;28;19948;-51
2023/10/12 12:00:21;;;;;;;;;;;;;;;19.87;61.71;101324.00;5033715;28;19913;-46
2023/10/12 12:02:57;;;;;;;;;;;;;;;19.86;61.21;101316.94;5040456;28;19913;-47
2023/10/12 12:05:32;;;;;;;;;;;;;;;19.86;61.63;101314.25;5035930;28;19960;-49
2023/10/12 12:07:59;;;;;;;;;;;;;;;19.87;61.60;101321.31;5042191;28;19916;-49
2023/10/12 12:10:38;;;;;;;;;;;;;;;19.86;61.66;101314.25;5038380;28;19909;-51
2023/10/12 12:13:04;;;;;;;;;;;;;;;19.86;61.41;101309.69;5032965;28;19927;-48
2023/10/12 12:15:29;;;;;;;;;;;;;;;19.85;61.41;101316.09;5037040;28;19913;-48
2023/10/12 12:17:54;;;;;;;;;;;;;;;19.85;61.52;101313.41;5036881;28;19920;-47
2023/10/12 12:20:23;;;;;;;;;;;;;;;19.86;61.68;101303.44;5035579;28;20008;-49
2023/10/12 12:22:48;;;;;;;;;;;;;;;19.86;61.43;101311.53;5042022;28;19935;-49
2023/10/12 12:25:31;;;;;;;;;;;;;;;19.85;61.47;101316.09;5037964;28;19923;-47
2023/10/12 12:27:59;;;;;;;;;;;;;;;19.84;61.35;101311.72;5036561;28;19913;-51
2023/10/12 12:30:35;;;;;;;;;;;;;;;19.85;61.43;101304.47;5038854;28;19940;-49
2023/10/12 12:33:00;;;;;;;;;;;;;;;19.84;61.42;101308.19;5039994;28;19939;-50
2023/10/12 12:35:31;;;;;;;;;;;;;;;19.85;61.41;101304.47;5041488;28;19913;-47
2023/10/12 12:38:00;;;;;;;;;;;;;;;19.84;61.61;101306.31;5039406;28;19940;-49
2023/10/12 12:40:30;;;;;;;;;;;;;;;19.84;61.36;101294.69;5041532;28;19972;-47
2023/10/12 12:42:55;;;;;;;;;;;;;;;19.83;61.63;101312.69;5038747;28;19912;-49
2023/10/12 12:45:20;;;;;;;;;;;;;;;19.83;61.74;101312.69;5039826;28;19913;-48
2023/10/12 12:47:46;;;;;;;;;;;;;;;19.83;61.31;101311.84;5042565;28;19914;-50
2023/10/12 12:50:11;;;;;;;;;;;;;;;19.84;61.24;101313.56;5038088;28;19913;-47
2023/10/12 12:52:36;;;;;;;;;;;;;;;19.82;61.67;101302.94;5037688;28;20334;-48
2023/10/12 12:55:09;;;;;;;;;;;;;;;19.83;61.57;101312.69;5043454;28;19909;-48
2023/10/12 12:57:35;;;;;;;;;;;;;;;19.83;61.44;101301.06;5035782;28;20288;-50
2023/10/12 13:00:07;;;;;;;;;;;;;;;19.82;61.72;101299.38;5040872;28;19909;-48
2023/10/12 13:02:32;;;;;;;;;;;;;;;19.83;61.66;101311.84;5039171;28;19980;-48
2023/10/12 13:04:57;;;;;;;;;;;;;;;19.81;61.64;101301.25;5038162;28;19991;-52
2023/10/12 13:07:22;;;;;;;;;;;;;;;19.80;61.37;101286.06;5040020;28;20267;-50
2023/10/12 13:09:48;;;;;;;;;;;;;;;19.80;61.69;101298.72;5041956;28;19917;-45
2023/10/12 13:12:13;;;;;;;;;;;;;;;19.80;61.47;101290.63;5038272;28;19952;-51
2023/10/12 13:14:42;;;;;;;;;;;;;;;19.79;61.74;101300.53;5039930;28;19920;-47
2023/10/12 13:17:08;;;;;;;;;;;;;;;19.81;61.80;101295.00;5040578;28;19927;-47
2023/10/12 13:19:34;;;;;;;;;;;;;;;19.80;61.72;101296.88;5039727;28;19913;-48
2023/10/12 13:21:59;;;;;;;;;;;;;;;19.79;62.09;101295.16;5040257;28;20437;-48
2023/10/12 13:24:25;;;;;;;;;;;;;;;19.80;62.09;101296.88;5070006;28;20384;-47
2023/10/12 13:26:51;;;;;;;;;;;;;;;19.80;62.19;101286.06;5041857;28;19913;-46
2023/10/12 13:29:17;;;;;;;;;;;;;;;19.80;62.17;101280.69;5042621;28;20358;-48
2023/10/12 13:31:42;;;;;;;;;;;;;;;19.80;62.29;101279.84;5038257;28;19909;-48
2023/10/12 13:34:07;;;;;;;;;;;;;;;19.80;62.24;101272.59;5038873;28;19920;-49
2023/10/12 13:36:33;;;;;;;;;;;;;;;19.80;62.27;101282.53;5039608;28;19920;-51
2023/10/12 13:38:59;;;;;;;;;;;;;;;19.78;62.12;101274.59;5036591;28;19913;-47
2023/10/12 13:41:25;;;;;;;;;;;;;;;19.80;62.10;101279.84;5039575;28;19909;-50
2023/10/12 13:43:50;;;;;;;;;;;;;;;19.80;62.29;101287.94;5039237;28;19909;-46
2023/10/12 13:46:16;;;;;;;;;;;;;;;19.78;62.16;101293.47;5038508;28;20352;-51
2023/10/12 13:48:41;;;;;;;;;;;;;;;19.78;62.27;101282.69;5039578;28;19913;-49
2023/10/12 13:51:17;;;;;;;;;;;;;;;19.78;62.23;101271.88;5035469;28;20277;-46
2023/10/12 13:53:45;;;;;;;;;;;;;;;19.78;62.01;101263.78;5034752;28;19916;-48
2023/10/12 13:56:11;;;;;;;;;;;;;;;19.78;62.32;101266.50;5036906;28;19916;-47
2023/10/12 13:58:41;;;;;;;;;;;;;;;19.78;62.41;101260.25;5041467;28;19987;-47
2023/10/12 14:01:14;;;;;;;;;;;;;;;19.77;62.13;101262.09;5038692;28;19917;-49
2023/10/12 14:03:39;;;;;;;;;;;;;;;19.77;62.27;101261.28;5040011;28;19913;-47
2023/10/12 14:06:06;;;;;;;;;;;;;;;19.77;62.44;101259.41;5038454;28;19944;-47
2023/10/12 14:08:32;;;;;;;;;;;;;;;19.79;62.43;101267.31;5036100;28;19996;-47
2023/10/12 14:11:03;;;;;;;;;;;;;;;19.79;62.33;101291.63;5037366;28;19917;-47
2023/10/12 14:13:28;;;;;;;;;;;;;;;19.79;62.06;101281.66;5038813;28;19916;-51
2023/10/12 14:15:53;;;;;;;;;;;;;;;19.78;62.17;101268.34;5038451;28;19941;-46
2023/10/12 14:18:18;;;;;;;;;;;;;;;19.77;62.26;101255.88;5035995;28;19917;-47
2023/10/12 14:20:44;;;;;;;;;;;;;;;19.77;62.41;101251.31;5029697;28;19910;-48
2023/10/12 14:23:09;;;;;;;;;;;;;;;19.77;62.04;101243.22;5033187;28;20423;-49
2023/10/12 14:25:35;;;;;;;;;;;;;;;19.77;62.01;101215.41;5036121;28;19909;-46